Time;durP1;ratioP1;P1;durP2;ratioP2;P2;SDS_P1;SDS_P2;PMS_P1;PMS_P2;Temp;Humidity;BMP_temperature;BMP_pressure;BME280_temperature;BME280_humidity;BME280_pressure;Samples;Min_cycle;Max_cycle;Signal;HPM_P1;HPM_P2
2022/06/25 00:01:15;;;;;;;4.70;2.70;;;;;;;25.44;43.59;100683.44;5049413;28;20499;-68
2022/06/25 00:03:43;;;;;;;3.50;2.58;;;;;;;25.40;43.71;100690.50;5051429;28;20480;-68
2022/06/25 00:06:12;;;;;;;3.23;2.43;;;;;;;25.36;43.57;100679.38;5051337;28;20516;-68
2022/06/25 00:08:39;;;;;;;4.03;2.83;;;;;;;25.33;43.69;100682.63;5050227;28;20504;-68
2022/06/25 00:11:07;;;;;;;3.80;2.60;;;;;;;25.30;43.83;100680.44;5047613;28;20416;-67
2022/06/25 00:13:34;;;;;;;3.75;2.88;;;;;;;25.29;43.66;100682.34;5050126;28;20487;-68
2022/06/25 00:16:01;;;;;;;3.77;2.70;;;;;;;25.27;43.74;100684.53;5051528;28;20408;-68
2022/06/25 00:18:28;;;;;;;4.65;2.92;;;;;;;25.25;43.62;100689.41;5050926;28;20448;-68
2022/06/25 00:20:55;;;;;;;4.30;2.57;;;;;;;25.24;43.80;100703.22;5051162;28;20894;-68
2022/06/25 00:23:23;;;;;;;2.90;2.58;;;;;;;25.21;43.76;100703.72;5051133;28;20416;-68
2022/06/25 00:25:51;;;;;;;3.47;2.50;;;;;;;25.19;43.71;100712.97;5051130;28;20440;-68
2022/06/25 00:28:17;;;;;;;4.60;2.65;;;;;;;25.12;43.82;100708.88;5051165;28;20423;-68
2022/06/25 00:30:44;;;;;;;3.80;2.63;;;;;;;25.11;43.74;100704.53;5050570;28;20794;-68
2022/06/25 00:33:11;;;;;;;5.10;2.60;;;;;;;25.11;43.80;100715.38;5050500;28;20447;-68
2022/06/25 00:35:38;;;;;;;5.22;2.70;;;;;;;25.08;43.79;100705.88;5051334;28;20487;-68
2022/06/25 00:38:05;;;;;;;4.90;2.42;;;;;;;25.05;43.84;100708.28;5050799;28;20799;-68
2022/06/25 00:40:34;;;;;;;2.90;2.60;;;;;;;25.03;43.88;100713.19;5050429;28;21017;-68
2022/06/25 00:43:01;;;;;;;3.17;2.63;;;;;;;25.04;43.67;100714.81;5050256;28;20420;-68
2022/06/25 00:45:28;;;;;;;3.20;2.50;;;;;;;25.04;43.78;100712.09;5050315;28;20408;-68
2022/06/25 00:47:54;;;;;;;2.88;2.60;;;;;;;25.02;43.80;100719.69;5050285;28;20504;-66
2022/06/25 00:50:21;;;;;;;3.97;2.65;;;;;;;24.99;43.79;100713.72;5048069;28;20499;-68
2022/06/25 00:52:53;;;;;;;2.90;2.60;;;;;;;24.95;43.93;100709.91;5049992;28;20420;-67
2022/06/25 00:55:23;;;;;;;2.85;2.60;;;;;;;24.91;44.01;100705.28;5049698;28;20803;-67
2022/06/25 00:57:52;;;;;;;4.28;2.58;;;;;;;24.89;43.98;100705.56;5050751;28;20412;-68
2022/06/25 01:00:19;;;;;;;3.13;2.40;;;;;;;24.92;43.89;100707.75;5050361;28;20838;-68
2022/06/25 01:02:47;;;;;;;4.53;2.50;;;;;;;24.92;44.00;100696.91;5050310;28;20419;-68
2022/06/25 01:07:30;;;;;;;2.72;2.50;;;;;;;24.90;43.91;100688.22;5098541;27;20754;-68
2022/06/25 01:09:57;;;;;;;4.80;2.90;;;;;;;24.92;43.95;100685.22;5086759;28;20959;-69
2022/06/25 01:12:24;;;;;;;4.73;2.40;;;;;;;24.88;43.86;100676.78;5072142;28;20791;-66
2022/06/25 01:15:01;;;;;;;5.55;2.63;;;;;;;24.90;44.08;100674.66;5075063;28;20415;-69
2022/06/25 01:17:29;;;;;;;2.80;2.60;;;;;;;24.88;43.91;100673.28;5085742;28;20414;-68
2022/06/25 01:19:56;;;;;;;3.60;2.50;;;;;;;24.89;43.74;100683.88;5086912;28;20411;-67
2022/06/25 01:22:25;;;;;;;4.00;2.90;;;;;;;24.89;43.93;100677.63;5086193;28;20765;-67
2022/06/25 01:24:51;;;;;;;3.90;2.50;;;;;;;24.88;44.10;100679.50;5086509;28;20904;-66
2022/06/25 01:27:18;;;;;;;4.88;2.80;;;;;;;24.89;43.95;100680.34;5071893;28;20523;-67
2022/06/25 01:29:46;;;;;;;2.90;2.60;;;;;;;24.89;44.14;100678.44;5086354;28;20501;-69
2022/06/25 01:32:13;;;;;;;3.35;2.67;;;;;;;24.89;43.99;100683.06;5085966;28;20403;-66
2022/06/25 01:34:40;;;;;;;6.32;2.80;;;;;;;24.89;44.16;100681.16;5086592;28;20501;-67
2022/06/25 01:37:22;;;;;;;3.50;2.55;;;;;;;24.89;43.89;100680.34;5097177;27;20406;-68
2022/06/25 01:39:52;;;;;;;3.72;2.40;;;;;;;24.89;43.92;100686.56;5097131;28;20499;-68
2022/06/25 01:45:00;;;;;;;3.65;2.65;;;;;;;24.87;44.09;100675.19;5103713;28;20416;-69
2022/06/25 01:47:27;;;;;;;3.60;2.60;;;;;;;24.77;44.51;100669.72;5095062;28;20406;-66
2022/06/25 01:49:54;;;;;;;3.95;2.75;;;;;;;24.75;44.23;100672.69;5088935;28;20418;-68
2022/06/25 01:52:22;;;;;;;5.30;2.60;;;;;;;24.74;44.63;100668.38;5093125;28;20972;-68
2022/06/25 01:54:49;;;;;;;3.08;2.72;;;;;;;24.76;44.53;100668.09;5092896;28;20481;-68
2022/06/25 01:57:16;;;;;;;3.03;2.60;;;;;;;24.76;44.50;100678.94;5096474;28;20576;-69
2022/06/25 01:59:45;;;;;;;4.10;2.65;;;;;;;24.73;44.67;100680.28;5097350;28;20864;-68
2022/06/25 02:02:51;;;;;;;4.65;2.60;;;;;;;24.72;44.86;100689.50;5091502;27;20465;-68
2022/06/25 02:05:56;;;;;;;3.55;2.40;;;;;;;24.69;45.11;100695.44;5086186;28;20940;-67
2022/06/25 02:08:06;;;;;;;3.80;2.63;;;;;;;24.73;45.01;100706.59;5074763;28;20917;-66
2022/06/25 02:10:33;;;;;;;4.40;2.78;;;;;;;24.75;44.90;100707.94;5085542;28;20467;-66
2022/06/25 02:13:00;;;;;;;4.47;2.70;;;;;;;24.77;44.83;100713.91;5085961;28;20503;-66
2022/06/25 02:15:27;;;;;;;4.85;2.55;;;;;;;24.80;44.96;100712.56;5079807;28;20497;-66
2022/06/25 02:17:56;;;;;;;4.60;2.90;;;;;;;24.79;44.94;100714.47;5079705;28;20495;-66
2022/06/25 02:20:23;;;;;;;3.58;2.47;;;;;;;24.79;45.12;100714.47;5077197;28;20487;-66
2022/06/25 02:22:50;;;;;;;3.22;2.60;;;;;;;24.79;45.13;100714.47;5086086;28;20935;-67
2022/06/25 02:26:14;;;;;;;3.92;2.60;;;;;;;24.77;45.30;100711.19;5088117;27;20467;-66
2022/06/25 02:28:41;;;;;;;3.00;2.60;;;;;;;24.77;45.16;100711.19;5074704;28;20505;-66
2022/06/25 02:31:08;;;;;;;2.92;2.40;;;;;;;24.76;45.13;100711.47;5085366;28;20528;-66
2022/06/25 02:33:35;;;;;;;3.40;2.78;;;;;;;24.73;45.18;100714.72;5086102;28;20421;-67
2022/06/25 02:36:02;;;;;;;2.97;2.40;;;;;;;24.68;45.23;100726.34;5080217;28;20506;-66
2022/06/25 02:38:29;;;;;;;3.28;2.42;;;;;;;24.60;45.43;100732.28;5084812;28;20446;-66
2022/06/25 02:40:56;;;;;;;3.38;2.38;;;;;;;24.54;45.47;100736.84;5073945;28;20422;-66
2022/06/25 02:43:25;;;;;;;3.03;2.40;;;;;;;24.53;45.68;100735.22;5076162;28;20493;-66
2022/06/25 02:45:52;;;;;;;2.95;2.30;;;;;;;24.54;45.63;100727.88;5084911;28;20437;-66
2022/06/25 02:48:19;;;;;;;4.07;2.70;;;;;;;24.50;45.76;100729.47;5084503;28;20501;-67
2022/06/25 02:50:46;;;;;;;3.53;2.70;;;;;;;24.47;45.50;100738.13;5078178;28;20445;-66
2022/06/25 02:53:13;;;;;;;3.65;2.80;;;;;;;24.46;45.36;100747.34;5085716;28;20493;-67
2022/06/25 03:01:09;;;;;;;5.25;3.00;;;;;;;24.51;45.29;100750.09;5077517;28;20414;-67
2022/06/25 03:03:36;;;;;;;3.95;2.95;;;;;;;24.55;45.41;100743.09;5084218;28;20517;-67
2022/06/25 03:06:04;;;;;;;4.15;3.17;;;;;;;24.55;45.13;100748.50;5072177;28;20481;-67
2022/06/25 03:08:31;;;;;;;4.53;3.90;;;;;;;24.60;45.22;100753.97;5081694;28;20494;-67
2022/06/25 03:10:58;;;;;;;6.38;4.38;;;;;;;24.58;45.18;100764.25;5086220;28;20497;-67
2022/06/25 03:13:26;;;;;;;7.97;3.85;;;;;;;24.54;45.29;100769.38;5084109;28;20433;-67
2022/06/25 03:15:53;;;;;;;4.10;3.22;;;;;;;24.53;44.87;100762.31;5082290;28;20413;-67
2022/06/25 03:18:20;;;;;;;5.07;3.50;;;;;;;24.50;45.05;100765.50;5084985;28;20414;-66
2022/06/25 03:20:47;;;;;;;4.83;3.30;;;;;;;24.57;45.16;100766.13;5081767;28;20436;-67
2022/06/25 03:23:14;;;;;;;4.93;3.40;;;;;;;24.60;44.98;100770.22;5084217;28;20968;-66
2022/06/25 03:25:41;;;;;;;4.07;3.20;;;;;;;24.72;44.68;100773.53;5086957;28;20430;-67
2022/06/25 03:28:08;;;;;;;4.32;3.28;;;;;;;24.80;44.81;100767.59;5101127;28;20989;-67
2022/06/25 03:30:37;;;;;;;6.13;3.40;;;;;;;24.87;44.61;100767.38;5102804;28;20421;-66
2022/06/25 03:33:04;;;;;;;6.43;3.45;;;;;;;25.01;44.72;100756.84;5097992;28;20417;-67
2022/06/25 03:35:31;;;;;;;4.25;3.30;;;;;;;25.13;44.26;100759.31;5103988;28;20500;-67
2022/06/25 03:37:58;;;;;;;4.55;3.28;;;;;;;25.20;44.01;100759.91;5085333;28;20508;-67
2022/06/25 03:40:25;;;;;;;4.75;3.40;;;;;;;25.31;43.95;100767.00;5080481;28;20502;-67
2022/06/25 03:42:52;;;;;;;5.20;3.37;;;;;;;25.41;43.94;100765.41;5085310;28;20499;-67
2022/06/25 03:45:19;;;;;;;7.43;3.90;;;;;;;25.47;43.74;100770.56;5091232;28;20511;-67
2022/06/25 03:47:51;;;;;;;7.40;3.53;;;;;;;25.40;44.01;100764.59;5080736;28;20421;-67
2022/06/25 03:50:18;;;;;;;6.03;3.63;;;;;;;25.44;43.78;100771.09;5091670;28;20409;-66
2022/06/25 03:52:45;;;;;;;4.85;3.50;;;;;;;25.51;43.89;100768.94;5091315;28;20500;-67
2022/06/25 03:55:13;;;;;;;5.25;3.13;;;;;;;25.57;43.83;100769.78;5091708;28;20413;-67
2022/06/25 03:57:40;;;;;;;5.22;3.40;;;;;;;25.64;43.33;100783.91;5089566;28;20518;-67
2022/06/25 04:00:09;;;;;;;4.18;3.40;;;;;;;25.74;43.49;100786.63;5086660;28;20486;-66
2022/06/25 04:02:36;;;;;;;5.00;3.13;;;;;;;25.83;43.18;100792.34;5087121;28;20494;-67
2022/06/25 04:05:05;;;;;;;4.65;3.30;;;;;;;25.98;42.92;100788.03;5082502;28;20517;-67
2022/06/25 04:07:33;;;;;;;3.13;2.83;;;;;;;26.06;42.45;100791.03;5090621;28;20495;-67
2022/06/25 04:10:00;;;;;;;6.13;3.30;;;;;;;26.23;42.09;100800.81;5088433;28;20496;-67
2022/06/25 04:12:27;;;;;;;4.63;3.50;;;;;;;26.38;41.85;100802.69;5087820;28;20508;-67
2022/06/25 04:14:54;;;;;;;5.55;3.72;;;;;;;26.49;41.48;100798.88;5090185;28;20488;-65
2022/06/25 04:17:21;;;;;;;3.58;3.03;;;;;;;26.61;41.19;100793.16;5090567;28;20488;-66
2022/06/25 04:19:47;;;;;;;6.13;3.60;;;;;;;26.75;40.99;100807.81;5090568;28;20500;-66
2022/06/25 04:22:16;;;;;;;4.43;3.65;;;;;;;26.94;40.47;100791.72;5089384;28;20428;-66
2022/06/25 04:24:43;;;;;;;4.43;3.35;;;;;;;27.12;39.66;100793.00;5090301;28;20511;-66
2022/06/25 04:29:03;;;;;;;3.53;3.20;;;;;;;27.23;39.80;100800.00;5076622;28;20421;-67
2022/06/25 04:29:56;;;;;;;3.38;2.97;;;;;;;27.23;39.67;100810.09;5076308;28;20406;-67
2022/06/25 04:32:23;;;;;;;6.33;3.63;;;;;;;27.13;41.32;100808.22;5072872;28;20422;-66
2022/06/25 04:34:50;;;;;;;6.80;3.60;;;;;;;27.02;41.79;100809.34;5076372;28;20417;-67
2022/06/25 04:37:18;;;;;;;4.40;3.70;;;;;;;27.03;42.23;100811.81;5074146;28;20415;-67
2022/06/25 04:39:46;;;;;;;4.57;3.65;;;;;;;27.05;42.72;100808.81;5074419;28;20988;-67
2022/06/25 04:42:13;;;;;;;5.15;3.90;;;;;;;27.07;42.79;100806.63;5076340;28;20449;-66
2022/06/25 04:44:40;;;;;;;5.55;3.60;;;;;;;27.05;42.63;100808.81;5072981;28;20419;-67
2022/06/25 04:47:09;;;;;;;4.40;3.97;;;;;;;27.07;42.61;100812.88;5073877;28;21623;-67
2022/06/25 04:49:36;;;;;;;4.93;4.03;;;;;;;27.05;42.87;100801.47;5073400;28;20453;-66
2022/06/25 04:52:03;;;;;;;5.22;3.78;;;;;;;26.99;42.93;100799.84;5086979;28;20483;-67
2022/06/25 04:54:31;;;;;;;5.57;4.28;;;;;;;26.92;43.24;100801.22;5088463;28;20420;-67
2022/06/25 04:56:58;;;;;;;4.38;3.92;;;;;;;26.98;43.19;100798.22;5089479;28;20413;-67
2022/06/25 04:59:25;;;;;;;5.27;4.47;;;;;;;26.97;43.05;100807.47;5089382;28;20409;-66
2022/06/25 05:01:53;;;;;;;5.03;4.32;;;;;;;26.99;42.52;100812.63;5089302;28;20421;-67
2022/06/25 05:04:20;;;;;;;9.23;5.10;;;;;;;26.91;43.28;100808.59;5084746;28;20496;-67
2022/06/25 05:06:47;;;;;;;7.40;4.43;;;;;;;27.12;42.96;100803.88;5086782;28;20529;-68
2022/06/25 05:09:14;;;;;;;4.55;4.00;;;;;;;27.30;42.78;100812.53;5088262;28;20507;-67
2022/06/25 05:11:42;;;;;;;8.17;4.70;;;;;;;27.60;41.75;100815.09;5087324;28;20503;-67
2022/06/25 05:14:09;;;;;;;5.63;4.07;;;;;;;27.84;41.36;100817.13;5088028;28;20422;-68
2022/06/25 05:16:36;;;;;;;6.65;4.20;;;;;;;28.14;40.51;100832.41;5087710;28;20409;-67
2022/06/25 05:19:03;;;;;;;6.07;3.85;;;;;;;28.42;39.27;100825.38;5087862;28;20508;-68
2022/06/25 05:21:30;;;;;;;4.15;3.53;;;;;;;28.73;38.27;100816.91;5087727;28;20484;-67
2022/06/25 05:23:57;;;;;;;4.75;3.17;;;;;;;29.06;37.35;100816.25;5088260;28;20503;-68
2022/06/25 05:26:24;;;;;;;6.95;3.63;;;;;;;29.38;37.41;100815.59;5088041;28;20508;-66
2022/06/25 05:28:52;;;;;;;11.60;3.85;;;;;;;29.78;36.38;100807.94;5087607;28;20787;-67
2022/06/25 05:31:19;;;;;;;4.70;3.38;;;;;;;30.29;35.40;100806.28;5086275;28;20501;-66
2022/06/25 05:33:46;;;;;;;6.25;3.63;;;;;;;30.75;34.47;100802.72;5088035;28;20791;-67
2022/06/25 05:36:13;;;;;;;5.22;3.50;;;;;;;31.04;33.80;100804.34;5087701;28;20982;-68
2022/06/25 05:38:40;;;;;;;4.70;3.10;;;;;;;31.34;33.12;100802.06;5085461;28;20504;-67
2022/06/25 05:41:09;;;;;;;4.07;3.03;;;;;;;32.00;31.83;100811.50;5088493;28;20420;-68
2022/06/25 05:43:36;;;;;;;6.68;3.40;;;;;;;32.75;30.66;100820.00;5089480;28;20475;-68
2022/06/25 05:46:04;;;;;;;4.18;3.03;;;;;;;33.55;29.60;100826.47;5085598;28;20516;-67
2022/06/25 05:48:32;;;;;;;3.55;2.75;;;;;;;34.28;28.49;100818.34;5086501;28;20484;-66
2022/06/25 05:50:59;;;;;;;4.85;3.05;;;;;;;35.08;27.38;100809.44;5085845;28;20484;-65
2022/06/25 05:53:27;;;;;;;7.93;3.78;;;;;;;35.73;26.14;100806.41;5070826;28;20410;-65
2022/06/25 05:55:54;;;;;;;5.28;3.03;;;;;;;36.38;25.67;100812.22;5082144;28;20504;-65
2022/06/25 05:58:22;;;;;;;4.55;3.90;;;;;;;36.91;24.72;100807.63;5084689;28;20413;-58
2022/06/25 06:00:49;;;;;;;4.50;4.10;;;;;;;37.48;24.18;100810.53;5083690;28;20413;-58
2022/06/25 06:03:36;;;;;;;5.43;3.80;;;;;;;38.03;23.34;100811.69;5076723;28;20508;-59
2022/06/25 06:06:03;;;;;;;6.07;3.83;;;;;;;38.64;22.79;100812.47;5070497;28;20438;-58
2022/06/25 06:08:30;;;;;;;5.10;3.70;;;;;;;39.08;22.07;100804.00;5086530;28;20502;-58
2022/06/25 06:10:57;;;;;;;6.72;4.18;;;;;;;39.47;21.54;100806.00;5083262;28;20492;-58
2022/06/25 06:13:24;;;;;;;5.63;3.90;;;;;;;39.99;21.04;100812.19;5087530;28;20413;-58
2022/06/25 06:15:51;;;;;;;6.63;4.05;;;;;;;40.50;20.72;100803.59;5087352;28;20499;-59
2022/06/25 06:18:19;;;;;;;5.72;4.07;;;;;;;40.79;20.47;100798.44;5088495;28;20409;-59
2022/06/25 06:20:46;;;;;;;5.95;4.28;;;;;;;40.78;20.08;100805.19;5084109;28;20419;-58
2022/06/25 06:23:14;;;;;;;5.75;3.90;;;;;;;41.27;19.75;100798.75;5082091;28;20932;-58
2022/06/25 06:25:41;;;;;;;4.80;3.92;;;;;;;41.79;19.06;100799.75;5074605;28;20433;-58
2022/06/25 06:28:08;;;;;;;5.85;3.65;;;;;;;42.24;18.73;100810.16;5071274;28;20497;-58
2022/06/25 06:30:35;;;;;;;7.97;4.68;;;;;;;42.69;17.98;100803.34;5083856;28;20416;-58
2022/06/25 06:33:01;;;;;;;4.30;3.40;;;;;;;42.84;17.71;100798.66;5084990;28;20436;-59
2022/06/25 06:35:30;;;;;;;5.15;3.72;;;;;;;43.01;17.20;100797.19;5087579;28;20504;-59
2022/06/25 06:37:57;;;;;;;6.00;4.17;;;;;;;43.20;17.47;100792.47;5079158;28;20441;-59
2022/06/25 06:40:24;;;;;;;15.65;6.90;;;;;;;43.49;17.17;100798.97;5071175;28;20426;-60
2022/06/25 06:42:51;;;;;;;13.05;6.00;;;;;;;43.83;16.92;100784.72;5072596;28;20465;-58
2022/06/25 06:45:18;;;;;;;5.65;4.05;;;;;;;44.08;16.56;100790.31;5070973;28;20509;-58
2022/06/25 06:47:45;;;;;;;6.93;3.92;;;;;;;44.36;16.52;100791.56;5079722;28;20884;-59
2022/06/25 06:50:12;;;;;;;12.70;4.53;;;;;;;44.57;16.15;100793.53;5084920;28;20887;-60
2022/06/25 06:52:40;;;;;;;6.67;3.87;;;;;;;44.37;16.72;100782.78;5083404;28;20434;-58
2022/06/25 06:55:08;;;;;;;6.32;4.22;;;;;;;43.65;17.75;100782.69;5088968;28;20508;-59
2022/06/25 06:57:35;;;;;;;5.90;3.97;;;;;;;43.13;17.96;100782.09;5078943;28;20510;-59
2022/06/25 07:00:04;;;;;;;5.25;4.10;;;;;;;42.04;19.03;100785.28;5086110;28;20807;-59
2022/06/25 07:02:31;;;;;;;4.45;4.00;;;;;;;41.74;19.10;100788.16;5087198;28;20417;-59
2022/06/25 07:04:58;;;;;;;4.35;3.88;;;;;;;41.11;20.00;100781.41;5087752;28;21015;-59
2022/06/25 07:07:25;;;;;;;6.25;3.97;;;;;;;39.70;21.54;100779.13;5085278;28;20970;-59
2022/06/25 07:09:53;;;;;;;5.25;4.22;;;;;;;38.95;22.25;100783.06;5080203;28;20430;-60
2022/06/25 07:12:20;;;;;;;5.43;3.70;;;;;;;37.97;23.03;100792.94;5088013;28;20906;-58
2022/06/25 07:14:47;;;;;;;7.45;4.20;;;;;;;37.72;23.10;100790.28;5078799;28;20421;-59
2022/06/25 07:17:14;;;;;;;4.27;3.87;;;;;;;37.49;23.34;100793.59;5088937;28;20512;-59
2022/06/25 07:19:41;;;;;;;5.35;4.20;;;;;;;36.81;23.87;100788.78;5085601;28;20496;-58
2022/06/25 07:22:08;;;;;;;7.07;4.38;;;;;;;36.31;25.34;100789.91;5088960;28;20982;-58
2022/06/25 07:24:35;;;;;;;5.63;4.03;;;;;;;36.21;25.26;100793.09;5085591;28;20435;-58
2022/06/25 07:27:04;;;;;;;6.03;4.20;;;;;;;35.63;25.76;100791.03;5087687;28;20508;-58
2022/06/25 07:29:31;;;;;;;4.47;4.03;;;;;;;35.28;26.04;100793.28;5079819;28;20999;-58
2022/06/25 07:31:58;;;;;;;4.47;3.90;;;;;;;35.04;26.46;100792.75;5090337;28;20505;-59
2022/06/25 07:34:25;;;;;;;5.28;4.07;;;;;;;34.72;26.70;100797.00;5077896;28;20493;-57
2022/06/25 07:36:51;;;;;;;4.25;3.83;;;;;;;34.51;26.97;100794.16;5083423;28;20806;-58
2022/06/25 07:39:18;;;;;;;4.38;3.97;;;;;;;34.17;27.54;100808.81;5087544;28;20504;-58
2022/06/25 07:41:45;;;;;;;5.07;3.63;;;;;;;33.99;28.08;100810.78;5085377;28;20774;-59
2022/06/25 07:44:14;;;;;;;3.70;3.38;;;;;;;33.70;28.36;100812.28;5084966;28;20858;-58
2022/06/25 07:46:41;;;;;;;4.20;3.83;;;;;;;33.70;28.70;100817.78;5090635;28;20496;-58
2022/06/25 07:49:09;;;;;;;7.93;4.53;;;;;;;33.69;28.97;100821.66;5090803;28;20492;-58
2022/06/25 07:54:20;;;;;;;5.23;4.03;;;;;;;33.14;29.98;100821.09;5085730;28;20408;-58
2022/06/25 07:56:47;;;;;;;6.57;4.05;;;;;;;33.32;29.79;100821.13;5090838;28;20536;-58
2022/06/25 07:59:16;;;;;;;4.53;3.70;;;;;;;33.39;29.69;100828.91;5081538;28;20497;-58
2022/06/25 08:01:43;;;;;;;5.75;4.15;;;;;;;33.58;29.27;100821.13;5091333;28;20496;-58
2022/06/25 08:04:10;;;;;;;5.75;4.30;;;;;;;33.71;29.38;100816.66;5083016;28;20494;-58
2022/06/25 08:06:38;;;;;;;5.95;4.38;;;;;;;33.77;29.06;100815.34;5087778;28;20496;-57
2022/06/25 08:09:06;;;;;;;8.87;4.43;;;;;;;33.85;29.26;100817.28;5090817;28;20421;-58
2022/06/25 08:11:32;;;;;;;5.47;3.92;;;;;;;33.94;28.42;100824.72;5090137;28;20520;-58
2022/06/25 08:14:00;;;;;;;6.60;3.95;;;;;;;33.99;28.51;100816.28;5091055;28;20500;-58
2022/06/25 08:16:28;;;;;;;4.70;3.93;;;;;;;33.96;28.19;100822.44;5091046;28;20511;-58
2022/06/25 08:18:55;;;;;;;6.93;4.00;;;;;;;33.95;28.54;100816.13;5076392;28;20534;-58
2022/06/25 08:21:22;;;;;;;7.20;4.50;;;;;;;33.85;28.65;100820.03;5087471;28;20409;-59
2022/06/25 08:23:49;;;;;;;4.50;4.07;;;;;;;33.93;28.85;100815.66;5090125;28;20535;-60
2022/06/25 08:26:16;;;;;;;4.88;3.80;;;;;;;34.00;28.24;100812.41;5089200;28;20413;-58
2022/06/25 08:28:44;;;;;;;4.90;3.90;;;;;;;33.75;28.88;100811.31;5081030;28;20415;-58
2022/06/25 08:31:11;;;;;;;5.55;3.85;;;;;;;33.01;29.97;100812.94;5087548;28;20409;-58
2022/06/25 08:33:40;;;;;;;4.95;4.32;;;;;;;32.66;29.90;100808.16;5091046;28;20421;-58
2022/06/25 08:36:07;;;;;;;6.38;4.15;;;;;;;32.57;29.93;100810.88;5084041;28;20901;-58
2022/06/25 08:38:34;;;;;;;4.82;3.95;;;;;;;32.89;30.45;100814.38;5090808;28;20486;-58
2022/06/25 08:41:02;;;;;;;6.13;4.43;;;;;;;33.00;30.35;100811.34;5075615;28;20509;-60
2022/06/25 08:43:29;;;;;;;4.40;4.00;;;;;;;32.88;29.84;100807.28;5088198;28;20456;-60
2022/06/25 08:45:56;;;;;;;4.88;3.70;;;;;;;32.70;30.60;100805.59;5082985;28;20509;-60
2022/06/25 08:48:25;;;;;;;5.40;4.15;;;;;;;32.78;29.89;100801.28;5073802;28;20429;-58
2022/06/25 08:50:56;;;;;;;5.65;3.60;;;;;;;32.79;29.79;100805.63;5075071;28;20986;-58
2022/06/25 08:53:23;;;;;;;6.63;4.30;;;;;;;32.92;29.53;100812.97;5076694;28;20498;-58
2022/06/25 08:55:50;;;;;;;4.32;3.47;;;;;;;33.03;29.28;100802.47;5073527;28;20494;-57
2022/06/25 08:58:17;;;;;;;5.38;3.75;;;;;;;32.88;29.10;100803.72;5076876;28;20493;-58
2022/06/25 09:00:46;;;;;;;6.65;3.78;;;;;;;32.90;30.00;100802.28;5071838;28;20419;-58
2022/06/25 09:03:13;;;;;;;5.13;3.85;;;;;;;32.91;30.99;100805.84;5070757;28;20809;-58
2022/06/25 09:05:42;;;;;;;5.13;4.20;;;;;;;32.75;31.02;100800.81;5072430;28;20984;-58
2022/06/25 09:08:12;;;;;;;5.88;4.30;;;;;;;32.87;31.00;100799.38;5069509;28;20410;-58
2022/06/25 09:10:40;;;;;;;5.28;4.07;;;;;;;32.80;30.92;100799.03;5070154;28;20489;-58
2022/06/25 09:13:08;;;;;;;4.47;4.07;;;;;;;32.87;30.55;100796.63;5078589;28;20428;-58
2022/06/25 09:15:39;;;;;;;5.00;3.97;;;;;;;32.85;30.85;100793.41;5073273;28;20421;-58
2022/06/25 09:18:11;;;;;;;4.97;4.18;;;;;;;32.57;31.04;100801.81;5071167;28;20430;-58
2022/06/25 09:20:56;;;;;;;4.87;4.03;;;;;;;32.51;30.74;100790.16;5074190;28;21628;-58
2022/06/25 09:23:24;;;;;;;4.32;3.85;;;;;;;32.56;31.03;100797.47;5076800;28;20417;-58
2022/06/25 09:26:01;;;;;;;5.32;3.83;;;;;;;32.37;30.50;100797.69;5071022;28;20419;-58
2022/06/25 09:28:32;;;;;;;8.85;3.95;;;;;;;32.56;30.75;100795.53;5080326;28;20414;-60
2022/06/25 09:30:59;;;;;;;4.25;3.70;;;;;;;32.51;30.68;100814.06;5081035;28;20411;-59
2022/06/25 09:33:26;;;;;;;5.50;3.80;;;;;;;32.53;30.60;100806.31;5071540;28;20423;-59
2022/06/25 09:35:55;;;;;;;5.10;3.60;;;;;;;32.64;30.16;100804.94;5079591;28;20418;-58
2022/06/25 09:38:22;;;;;;;5.20;3.53;;;;;;;32.51;30.27;100803.09;5071218;28;20445;-58
2022/06/25 09:40:52;;;;;;;4.88;3.60;;;;;;;32.65;30.92;100801.06;5070087;28;21019;-58
2022/06/25 09:43:21;;;;;;;4.53;3.17;;;;;;;32.61;30.55;100800.09;5072428;28;20992;-57
2022/06/25 09:45:50;;;;;;;5.00;3.25;;;;;;;32.62;30.21;100798.97;5076320;28;20477;-58
2022/06/25 09:48:20;;;;;;;4.90;3.75;;;;;;;32.55;30.89;100796.63;5073045;28;20472;-59
2022/06/25 09:51:05;;;;;;;4.70;3.30;;;;;;;32.69;30.51;100793.81;5069201;28;20505;-58
2022/06/25 09:53:33;;;;;;;3.60;3.20;;;;;;;32.91;30.13;100787.41;5075878;28;20441;-59
2022/06/25 09:56:04;;;;;;;3.97;3.13;;;;;;;33.09;29.43;100779.22;5080747;28;20460;-58
2022/06/25 09:58:32;;;;;;;4.03;3.20;;;;;;;33.13;29.80;100778.31;5083506;28;20406;-59
2022/06/25 10:00:59;;;;;;;4.68;3.30;;;;;;;32.90;30.08;100774.81;5068941;28;20429;-59
2022/06/25 10:03:27;;;;;;;4.25;3.50;;;;;;;32.83;30.35;100771.75;5073639;28;20408;-59
2022/06/25 10:05:56;;;;;;;4.93;3.33;;;;;;;32.99;29.94;100772.09;5072461;28;20430;-59
2022/06/25 10:08:25;;;;;;;3.50;3.20;;;;;;;33.04;29.49;100771.94;5069371;28;20465;-59
2022/06/25 10:10:55;;;;;;;3.50;3.20;;;;;;;33.02;29.49;100782.44;5068829;28;20766;-59
2022/06/25 10:13:25;;;;;;;4.10;3.42;;;;;;;33.00;29.78;100779.19;5069963;28;20419;-59
2022/06/25 10:15:54;;;;;;;3.83;3.42;;;;;;;33.05;29.86;100772.75;5075238;28;20418;-58
2022/06/25 10:18:22;;;;;;;5.17;3.07;;;;;;;33.09;30.08;100768.22;5080434;28;20501;-59
2022/06/25 10:20:49;;;;;;;5.07;3.40;;;;;;;32.89;30.25;100772.41;5084088;28;20418;-59
2022/06/25 10:23:17;;;;;;;3.60;3.05;;;;;;;32.89;30.54;100769.66;5085546;28;20519;-58
2022/06/25 10:25:44;;;;;;;3.58;3.00;;;;;;;33.05;30.55;100765.31;5083262;28;20410;-59
2022/06/25 10:28:12;;;;;;;3.60;3.10;;;;;;;32.92;30.82;100764.34;5075949;28;20991;-59
2022/06/25 10:30:47;;;;;;;4.40;3.27;;;;;;;32.95;30.18;100758.22;5078469;28;20505;-59
2022/06/25 10:33:14;;;;;;;3.40;3.10;;;;;;;32.95;30.45;100751.88;5076686;28;20484;-58
2022/06/25 10:35:42;;;;;;;4.77;3.47;;;;;;;33.06;29.85;100744.97;5072283;28;20498;-59
2022/06/25 10:38:11;;;;;;;4.40;3.13;;;;;;;33.13;30.34;100745.34;5070135;28;20426;-59
2022/06/25 10:40:50;;;;;;;3.40;3.10;;;;;;;33.16;29.92;100732.09;5068955;28;20446;-60
2022/06/25 10:43:36;;;;;;;4.90;3.05;;;;;;;33.16;29.98;100740.31;5067710;28;20418;-58
2022/06/25 10:46:26;;;;;;;5.30;3.50;;;;;;;33.24;30.36;100740.34;5071923;28;20444;-59
2022/06/25 10:48:57;;;;;;;4.70;3.17;;;;;;;33.44;30.38;100738.88;5074864;28;20482;-59
2022/06/25 10:51:35;;;;;;;3.72;2.90;;;;;;;33.37;29.99;100745.97;5074994;28;20467;-60
2022/06/25 10:54:05;;;;;;;3.33;3.03;;;;;;;33.17;30.17;100734.50;5072547;28;20501;-59
2022/06/25 10:56:44;;;;;;;4.00;3.22;;;;;;;33.18;29.93;100733.38;5074991;28;20415;-59
2022/06/25 10:59:15;;;;;;;3.15;2.85;;;;;;;33.01;29.97;100734.16;5075553;28;20407;-58
2022/06/25 11:01:57;;;;;;;4.22;3.08;;;;;;;32.95;30.01;100728.00;5073774;28;20441;-59
2022/06/25 11:04:27;;;;;;;4.00;3.20;;;;;;;33.00;29.80;100713.28;5071152;28;20774;-60
2022/06/25 11:07:07;;;;;;;3.20;2.85;;;;;;;33.00;29.20;100718.78;5073029;28;20923;-58
2022/06/25 11:09:34;;;;;;;3.08;2.70;;;;;;;32.89;29.70;100712.78;5075634;28;20497;-58
2022/06/25 11:12:02;;;;;;;4.00;2.88;;;;;;;32.74;29.23;100714.06;5072245;28;20418;-59
2022/06/25 11:14:29;;;;;;;3.55;2.95;;;;;;;32.93;29.41;100704.72;5073186;28;20501;-59
2022/06/25 11:16:57;;;;;;;3.45;2.72;;;;;;;33.02;29.03;100716.53;5072725;28;20426;-58
2022/06/25 11:19:25;;;;;;;5.55;3.03;;;;;;;33.06;29.54;100708.44;5070153;28;20410;-58
2022/06/25 11:21:52;;;;;;;3.55;2.85;;;;;;;33.28;28.75;100704.78;5070780;28;20415;-58
2022/06/25 11:24:21;;;;;;;4.22;2.97;;;;;;;33.05;28.61;100702.16;5071337;28;20476;-59
2022/06/25 11:29:40;;;;;;;3.55;2.75;;;;;;;33.01;27.43;100684.72;5071699;28;20414;-58
2022/06/25 11:32:10;;;;;;;3.30;2.60;;;;;;;33.23;27.31;100685.72;5073078;28;20489;-59
2022/06/25 11:34:37;;;;;;;3.53;2.58;;;;;;;33.23;27.01;100682.97;5070774;28;20407;-60
2022/06/25 11:37:07;;;;;;;3.72;2.70;;;;;;;33.48;26.82;100675.81;5073026;28;20441;-59
2022/06/25 11:39:35;;;;;;;4.10;2.60;;;;;;;33.56;26.69;100677.72;5071342;28;20410;-59
2022/06/25 11:42:03;;;;;;;3.08;2.60;;;;;;;33.63;27.66;100680.78;5075258;28;20413;-59
2022/06/25 11:44:42;;;;;;;4.43;2.80;;;;;;;33.62;27.18;100673.69;5072491;28;20418;-59
2022/06/25 11:47:13;;;;;;;3.63;2.73;;;;;;;33.68;27.67;100677.91;5071626;28;20786;-59